createdAt,value
2023-02-28T00:00:55.856Z,21.34
2023-02-28T00:04:55.907Z,21.33
2023-02-28T00:08:55.976Z,21.32
2023-02-28T00:12:56.024Z,21.31
2023-02-28T00:16:56.070Z,21.31
2023-02-28T00:20:56.145Z,21.30
2023-02-28T00:24:56.331Z,21.30
2023-02-28T00:28:56.500Z,21.29
2023-02-28T00:32:56.667Z,21.28
2023-02-28T00:36:56.859Z,21.28
2023-02-28T00:40:57.042Z,21.27
2023-02-28T00:44:57.220Z,21.26
2023-02-28T00:48:57.392Z,21.26
2023-02-28T00:52:57.616Z,21.26
2023-02-28T00:56:57.808Z,21.25
2023-02-28T01:00:58.010Z,21.24
2023-02-28T01:04:58.240Z,21.24
2023-02-28T01:08:58.433Z,21.23
2023-02-28T01:12:58.648Z,21.23
2023-02-28T01:16:58.866Z,21.22
2023-02-28T01:20:59.055Z,21.21
2023-02-28T01:24:59.249Z,21.20
2023-02-28T01:28:59.521Z,21.20
2023-02-28T01:32:59.716Z,21.19
2023-02-28T01:36:59.922Z,21.19
2023-02-28T01:41:00.137Z,21.18
2023-02-28T01:45:00.359Z,21.18
2023-02-28T01:49:00.570Z,21.17
2023-02-28T01:53:00.798Z,21.17
2023-02-28T01:57:01.038Z,21.16
2023-02-28T02:01:01.254Z,21.15
2023-02-28T02:05:01.522Z,21.14
2023-02-28T02:09:01.720Z,21.15
2023-02-28T02:13:01.966Z,21.14
2023-02-28T02:17:02.182Z,21.13
2023-02-28T02:21:02.449Z,21.13
2023-02-28T02:25:02.671Z,21.12
2023-02-28T02:29:03.307Z,21.12
2023-02-28T02:33:03.149Z,21.12
2023-02-28T02:37:03.388Z,21.10
2023-02-28T02:41:03.626Z,21.09
2023-02-28T02:45:03.830Z,21.10
2023-02-28T02:49:04.115Z,21.09
2023-02-28T02:53:04.376Z,21.09
2023-02-28T02:57:04.619Z,21.09
2023-02-28T03:01:05.018Z,21.08
2023-02-28T03:05:05.126Z,21.07
2023-02-28T03:09:05.390Z,21.06
2023-02-28T03:13:05.632Z,21.06
2023-02-28T03:17:05.912Z,21.05
2023-02-28T03:21:06.113Z,21.05
2023-02-28T03:25:06.384Z,21.04
2023-02-28T03:29:06.385Z,21.04
2023-02-28T03:33:06.405Z,21.03
2023-02-28T03:37:06.481Z,21.03
2023-02-28T03:41:06.440Z,21.02
2023-02-28T03:45:06.430Z,21.01
2023-02-28T03:49:06.511Z,21.01
2023-02-28T03:53:06.483Z,21.01
2023-02-28T03:57:06.578Z,21.01
2023-02-28T04:01:06.573Z,21.00
2023-02-28T04:05:06.680Z,20.99
2023-02-28T04:09:06.664Z,20.99
2023-02-28T04:13:06.992Z,20.99
2023-02-28T04:17:07.012Z,20.98
2023-02-28T04:21:06.987Z,20.98
2023-02-28T04:25:07.039Z,20.98
2023-02-28T04:29:07.048Z,20.97
2023-02-28T04:33:07.062Z,20.96
2023-02-28T04:37:13.195Z,20.96
2023-02-28T04:41:08.121Z,20.95
2023-02-28T04:45:07.146Z,20.95
2023-02-28T04:49:07.313Z,20.93
2023-02-28T04:53:07.380Z,20.93
2023-02-28T04:57:07.365Z,20.93
2023-02-28T05:01:07.380Z,20.92
2023-02-28T05:05:07.485Z,20.91
2023-02-28T05:09:07.498Z,20.92
2023-02-28T05:13:07.594Z,20.91
2023-02-28T05:17:07.619Z,20.90
2023-02-28T05:21:07.714Z,20.90
2023-02-28T05:25:07.727Z,20.89
2023-02-28T05:29:07.788Z,20.88
2023-02-28T05:33:07.978Z,20.88
2023-02-28T05:37:08.300Z,20.88
2023-02-28T05:41:08.565Z,20.87
2023-02-28T05:45:08.924Z,20.87
2023-02-28T05:49:09.271Z,20.86
2023-02-28T05:53:09.536Z,20.85
2023-02-28T05:57:18.933Z,20.83
2023-02-28T06:01:10.913Z,20.84
2023-02-28T06:05:09.952Z,20.84
2023-02-28T06:09:10.185Z,20.84
2023-02-28T06:13:10.529Z,20.85
2023-02-28T06:17:10.858Z,20.85
2023-02-28T06:21:10.947Z,20.85
2023-02-28T06:25:10.990Z,20.86
2023-02-28T06:29:11.104Z,20.86
2023-02-28T06:33:11.115Z,20.86
2023-02-28T06:37:11.190Z,20.88
2023-02-28T06:41:11.214Z,20.93
2023-02-28T06:45:11.416Z,21.01
2023-02-28T06:49:11.437Z,21.10
2023-02-28T06:53:11.388Z,21.18
2023-02-28T06:57:11.416Z,21.26
2023-02-28T07:01:11.535Z,21.42
2023-02-28T07:05:11.886Z,21.56
2023-02-28T07:09:11.537Z,21.68
2023-02-28T07:13:11.555Z,21.77
2023-02-28T07:17:11.573Z,21.87
2023-02-28T07:21:11.789Z,21.97
2023-02-28T07:25:12.070Z,22.07
2023-02-28T07:29:12.349Z,22.14
2023-02-28T07:33:12.572Z,22.21
2023-02-28T07:37:12.808Z,22.29
2023-02-28T07:41:12.934Z,22.75
2023-02-28T07:45:13.071Z,22.85
2023-02-28T07:49:13.139Z,22.99
2023-02-28T07:53:13.415Z,23.96
2023-02-28T07:57:13.133Z,24.46
2023-02-28T08:01:13.119Z,24.94
2023-02-28T08:05:13.025Z,25.21
2023-02-28T08:09:12.920Z,25.43
2023-02-28T08:13:12.833Z,24.57
2023-02-28T08:17:12.807Z,24.12
2023-02-28T08:21:12.733Z,24.01
2023-02-28T08:25:12.671Z,23.91
2023-02-28T08:29:12.617Z,23.84
2023-02-28T08:33:12.575Z,23.90
2023-02-28T08:37:12.506Z,24.05
2023-02-28T08:41:12.963Z,24.19
2023-02-28T08:45:12.370Z,24.26
2023-02-28T08:49:12.453Z,24.35
2023-02-28T08:53:12.270Z,24.43
2023-02-28T08:57:12.279Z,25.04
2023-02-28T09:01:12.331Z,26.78
2023-02-28T09:05:12.324Z,28.13
2023-02-28T09:09:12.504Z,29.16
2023-02-28T09:13:12.249Z,29.63
2023-02-28T09:17:12.104Z,30.15
2023-02-28T09:21:12.047Z,30.48
2023-02-28T09:25:11.835Z,30.55
2023-02-28T09:29:11.966Z,30.59
2023-02-28T09:33:11.393Z,29.60
2023-02-28T09:37:11.479Z,26.81
2023-02-28T09:41:11.455Z,25.43
2023-02-28T09:45:11.474Z,25.49
2023-02-28T09:49:10.964Z,24.77
2023-02-28T09:53:10.995Z,24.36
2023-02-28T09:57:11.008Z,24.17
2023-02-28T10:01:11.002Z,24.01
2023-02-28T10:05:10.871Z,24.11
2023-02-28T10:09:10.820Z,23.59
2023-02-28T10:13:10.829Z,23.88
2023-02-28T10:17:10.853Z,23.79
2023-02-28T10:21:10.861Z,23.57
2023-02-28T10:25:11.063Z,23.12
2023-02-28T10:29:11.500Z,22.40
2023-02-28T10:33:11.488Z,22.09
2023-02-28T10:37:11.185Z,21.80
2023-02-28T10:41:11.511Z,21.51
2023-02-28T10:45:11.498Z,21.69
2023-02-28T10:49:11.471Z,22.15
2023-02-28T10:53:11.384Z,22.53
2023-02-28T10:57:11.497Z,22.82
2023-02-28T11:01:11.372Z,23.02
2023-02-28T11:05:11.343Z,23.16
2023-02-28T11:09:11.323Z,23.25
2023-02-28T11:13:11.499Z,23.34
2023-02-28T11:17:11.283Z,23.38
2023-02-28T11:21:11.238Z,23.42
2023-02-28T11:25:11.177Z,23.44
2023-02-28T11:29:11.524Z,23.46
2023-02-28T11:33:11.523Z,23.48
2023-02-28T11:37:11.484Z,23.49
2023-02-28T11:41:11.535Z,23.41
2023-02-28T11:45:11.462Z,23.49
2023-02-28T11:49:11.413Z,23.54
2023-02-28T11:53:11.352Z,23.61
2023-02-28T11:57:11.317Z,23.70
2023-02-28T12:01:11.512Z,23.77
2023-02-28T12:05:11.127Z,23.79
2023-02-28T12:09:11.067Z,23.81
2023-02-28T12:13:10.956Z,23.84
2023-02-28T12:17:11.050Z,23.87
2023-02-28T12:21:10.840Z,23.90
2023-02-28T12:25:11.080Z,23.96
2023-02-28T12:29:11.039Z,23.97
2023-02-28T12:33:11.038Z,23.99
2023-02-28T12:37:11.017Z,23.94
2023-02-28T12:41:11.536Z,23.89
2023-02-28T12:45:11.472Z,23.84
2023-02-28T12:49:11.505Z,23.78
2023-02-28T12:53:11.103Z,23.79
2023-02-28T12:57:11.072Z,23.77
2023-02-28T13:01:10.985Z,23.76
2023-02-28T13:05:11.032Z,23.76
2023-02-28T13:09:10.791Z,23.75
2023-02-28T13:13:10.760Z,23.75
2023-02-28T13:17:10.703Z,23.75
2023-02-28T13:21:11.037Z,23.69
2023-02-28T13:25:10.944Z,23.52
2023-02-28T13:29:11.051Z,23.07
2023-02-28T13:33:11.090Z,23.02
2023-02-28T13:37:11.559Z,22.93
2023-02-28T13:41:11.249Z,22.80
2023-02-28T13:45:11.404Z,22.68
2023-02-28T13:49:11.625Z,22.57
2023-02-28T13:53:11.825Z,22.48
2023-02-28T13:57:12.071Z,22.39
2023-02-28T14:01:12.146Z,22.31
2023-02-28T14:05:12.116Z,22.30
2023-02-28T14:09:12.142Z,22.45
2023-02-28T14:13:12.178Z,22.55
2023-02-28T14:17:12.140Z,22.59
2023-02-28T14:21:12.151Z,22.36
2023-02-28T14:25:12.554Z,22.21
2023-02-28T14:29:12.204Z,22.09
2023-02-28T14:33:12.214Z,22.09
2023-02-28T14:37:12.255Z,22.06
2023-02-28T14:41:12.279Z,21.32
2023-02-28T14:45:12.371Z,21.07
2023-02-28T14:49:12.576Z,21.28
2023-02-28T14:53:12.799Z,21.34
2023-02-28T14:57:13.031Z,21.38
2023-02-28T15:01:13.212Z,21.19
2023-02-28T15:05:13.508Z,21.14
2023-02-28T15:09:13.776Z,21.18
2023-02-28T15:13:14.112Z,21.12
2023-02-28T15:17:14.226Z,21.40
2023-02-28T15:21:14.358Z,21.66
2023-02-28T15:25:14.450Z,21.81
2023-02-28T15:29:15.111Z,21.94
2023-02-28T15:33:14.825Z,22.02
2023-02-28T15:37:14.796Z,22.08
2023-02-28T15:41:14.796Z,22.13
2023-02-28T15:45:14.896Z,22.16
2023-02-28T15:49:14.893Z,22.17
2023-02-28T15:53:14.916Z,22.19
2023-02-28T15:57:14.937Z,22.22
2023-02-28T16:01:14.967Z,22.24
2023-02-28T16:05:14.978Z,22.25
2023-02-28T16:09:14.997Z,22.26
2023-02-28T16:13:15.226Z,22.27
2023-02-28T16:17:15.448Z,22.29
2023-02-28T16:21:15.719Z,22.29
2023-02-28T16:25:15.685Z,22.28
2023-02-28T16:29:15.609Z,22.30
2023-02-28T16:33:15.579Z,22.30
2023-02-28T16:37:15.504Z,22.31
2023-02-28T16:41:15.458Z,22.30
2023-02-28T16:45:15.409Z,22.31
2023-02-28T16:49:15.380Z,22.29
2023-02-28T16:53:15.368Z,22.28
2023-02-28T16:57:15.285Z,22.28
2023-02-28T17:01:15.548Z,22.28
2023-02-28T17:05:15.525Z,22.26
2023-02-28T17:09:15.510Z,22.25
2023-02-28T17:13:15.622Z,22.24
2023-02-28T17:17:15.389Z,22.23
2023-02-28T17:21:15.344Z,22.24
2023-02-28T17:25:15.307Z,22.23
2023-02-28T17:29:15.301Z,22.22
2023-02-28T17:33:15.259Z,22.21
2023-02-28T17:37:15.264Z,22.21
2023-02-28T17:41:15.171Z,22.21
2023-02-28T17:45:15.153Z,22.20
2023-02-28T17:49:15.177Z,22.19
2023-02-28T17:53:15.420Z,22.19
2023-02-28T17:57:15.419Z,22.19
2023-02-28T18:01:15.502Z,22.18
2023-02-28T18:05:15.506Z,22.17
2023-02-28T18:09:15.482Z,22.17
2023-02-28T18:13:15.533Z,22.16
2023-02-28T18:17:16.189Z,22.15
2023-02-28T18:21:15.551Z,22.13
2023-02-28T18:25:15.590Z,22.13
2023-02-28T18:29:15.622Z,22.12
2023-02-28T18:33:15.691Z,22.13
2023-02-28T18:37:15.734Z,22.11
2023-02-28T18:41:15.795Z,22.11
2023-02-28T18:45:15.847Z,22.11
2023-02-28T18:49:15.875Z,22.10
2023-02-28T18:53:15.899Z,22.09
2023-02-28T18:57:15.963Z,22.08
2023-02-28T19:01:15.974Z,22.07
2023-02-28T19:05:15.980Z,22.07
2023-02-28T19:09:16.034Z,22.06
2023-02-28T19:13:16.088Z,22.06
2023-02-28T19:17:16.097Z,22.05
2023-02-28T19:21:16.109Z,22.04
2023-02-28T19:25:16.138Z,22.04
2023-02-28T19:29:16.180Z,22.03
2023-02-28T19:33:16.227Z,22.02
2023-02-28T19:37:16.206Z,22.02
2023-02-28T19:41:16.239Z,22.01
2023-02-28T19:45:16.267Z,22.00
2023-02-28T19:49:16.388Z,22.00
2023-02-28T19:53:16.337Z,21.98
2023-02-28T19:57:16.380Z,21.97
2023-02-28T20:01:16.556Z,21.96
2023-02-28T20:05:16.643Z,21.95
2023-02-28T20:09:16.847Z,21.95
2023-02-28T20:13:18.614Z,21.95
2023-02-28T20:17:17.220Z,21.94
2023-02-28T20:21:17.400Z,21.93
2023-02-28T20:25:17.605Z,21.92
2023-02-28T20:29:17.902Z,21.91
2023-02-28T20:33:18.174Z,21.91
2023-02-28T20:37:18.354Z,21.91
2023-02-28T20:41:18.532Z,21.90
2023-02-28T20:45:18.834Z,21.89
2023-02-28T20:49:19.054Z,21.89
2023-02-28T20:53:19.363Z,21.88
2023-02-28T20:57:19.550Z,21.87
2023-02-28T21:01:19.733Z,21.87
2023-02-28T21:05:19.790Z,21.87
2023-02-28T21:09:19.880Z,21.87
2023-02-28T21:13:20.037Z,21.86
2023-02-28T21:17:20.214Z,21.84
2023-02-28T21:21:20.339Z,21.84
2023-02-28T21:25:20.470Z,21.83
2023-02-28T21:29:20.536Z,21.83
2023-02-28T21:33:20.657Z,21.82
2023-02-28T21:37:20.810Z,21.82
2023-02-28T21:41:20.932Z,21.81
2023-02-28T21:45:21.051Z,21.81
2023-02-28T21:49:21.147Z,21.81
2023-02-28T21:53:21.219Z,21.80
2023-02-28T21:57:21.322Z,21.80
2023-02-28T22:01:21.425Z,21.79
2023-02-28T22:05:21.428Z,21.79
2023-02-28T22:09:21.506Z,21.79
2023-02-28T22:13:21.557Z,21.77
2023-02-28T22:17:21.632Z,21.77
2023-02-28T22:21:21.672Z,21.76
2023-02-28T22:25:21.767Z,21.76
2023-02-28T22:29:21.948Z,21.76
2023-02-28T22:33:22.106Z,21.75
2023-02-28T22:37:22.188Z,21.75
2023-02-28T22:41:22.313Z,21.75
2023-02-28T22:45:22.442Z,21.74
2023-02-28T22:49:22.575Z,21.73
2023-02-28T22:53:22.630Z,21.73
2023-02-28T22:57:22.715Z,21.73
2023-02-28T23:01:22.879Z,21.73
2023-02-28T23:05:22.864Z,21.72
2023-02-28T23:09:22.946Z,21.72
2023-02-28T23:13:23.018Z,21.72
2023-02-28T23:17:23.111Z,21.70
2023-02-28T23:21:23.206Z,21.72
2023-02-28T23:25:23.305Z,21.70
2023-02-28T23:29:23.420Z,21.69
2023-02-28T23:33:23.489Z,21.69
2023-02-28T23:37:23.574Z,21.70
2023-02-28T23:41:23.648Z,21.69
2023-02-28T23:45:23.791Z,21.69
2023-02-28T23:49:23.845Z,21.69
2023-02-28T23:53:23.964Z,21.68
2023-02-28T23:57:24.033Z,21.67
